Time;durP1;ratioP1;P1;durP2;ratioP2;P2;SDS_P1;SDS_P2;PMS_P1;PMS_P2;Temp;Humidity;BMP_temperature;BMP_pressure;BME280_temperature;BME280_humidity;BME280_pressure;Samples;Min_cycle;Max_cycle;Signal;HPM_P1;HPM_P2
2021/09/25 00:30:52;;;;;;;6.50;6.10;;;15.30;99.90;;;;;;3821578;22;21504;31
2021/09/25 00:39:00;;;;;;;7.80;7.10;;;15.20;99.90;;;;;;5522321;23;20986;-94
2021/09/25 00:41:27;;;;;;;6.07;5.57;;;14.70;99.90;;;;;;5135988;23;20464;-94
2021/09/25 00:45:02;;;;;;;6.20;5.80;;;15.80;99.90;;;;;;5180045;23;20476;-93
2021/09/25 00:50:30;;;;;;;8.30;6.50;;;15.10;99.90;;;;;;5388846;23;20488;-95
2021/09/25 00:55:38;;;;;;;7.63;7.00;;;15.00;99.90;;;;;;5335869;23;20487;-93
2021/09/25 00:58:27;;;;;;;8.27;7.47;;;16.40;99.90;;;;;;4997640;28;20464;-94
2021/09/25 01:01:00;;;;;;;8.63;7.00;;;15.10;99.90;;;;;;4993607;28;20412;-92
2021/09/25 01:03:25;;;;;;;7.50;6.43;;;14.90;99.90;;;;;;4998147;28;20543;-92
2021/09/25 01:05:51;;;;;;;8.90;6.20;;;14.90;99.90;;;;;;4995709;28;20425;-93
2021/09/25 01:47:29;;;;;;;7.37;6.77;;;14.80;99.90;;;;;;5202481;22;20464;-94
2021/09/25 01:50:03;;;;;;;8.93;7.20;;;14.80;99.90;;;;;;4990497;28;20807;-95
2021/09/25 01:52:47;;;;;;;8.50;7.80;;;15.40;99.90;;;;;;4982184;28;20420;-93
2021/09/25 01:55:15;;;;;;;8.17;7.47;;;16.40;99.90;;;;;;5011200;28;20511;-93
2021/09/25 01:57:41;;;;;;;7.53;6.93;;;14.50;99.90;;;;;;4990479;28;20452;-94
2021/09/25 02:00:07;;;;;;;8.43;7.73;;;16.60;99.90;;;;;;4996097;28;20464;-94
2021/09/25 02:02:50;;;;;;;9.13;8.33;;;15.90;99.90;;;;;;4997353;28;20436;-95
2021/09/25 02:05:17;;;;;;;8.10;7.10;;;15.00;99.90;;;;;;4978704;28;20587;-94
2021/09/25 02:07:44;;;;;;;8.17;7.53;;;17.00;99.90;;;;;;4991061;28;20428;-95
2021/09/25 02:10:16;;;;;;;8.50;7.70;;;16.20;99.90;;;;;;4993471;28;20424;-93
2021/09/25 02:12:45;;;;;;;8.00;7.40;;;15.60;99.90;;;;;;4976754;28;20424;-94
2021/09/25 02:15:15;;;;;;;7.53;6.93;;;16.80;99.90;;;;;;4992418;28;20439;-96
2021/09/25 02:17:53;;;;;;;7.93;7.23;;;17.00;99.90;;;;;;4994194;28;20452;-94
2021/09/25 02:20:19;;;;;;;9.20;8.07;;;16.40;99.90;;;;;;4996842;28;20420;-95
2021/09/25 02:22:48;;;;;;;10.00;7.40;;;14.80;99.90;;;;;;4999393;28;20440;-94
2021/09/25 02:25:16;;;;;;;7.50;6.77;;;15.10;99.90;;;;;;5464890;23;20505;-93
2021/09/25 02:27:42;;;;;;;8.00;7.40;;;16.90;99.90;;;;;;5035099;28;20434;-93
2021/09/25 02:30:13;;;;;;;8.23;7.67;;;15.80;99.90;;;;;;5039118;28;20423;-95
2021/09/25 02:32:40;;;;;;;8.40;7.63;;;16.10;99.90;;;;;;5056289;28;20502;-95
2021/09/25 02:35:11;;;;;;;8.13;7.53;;;15.20;99.90;;;;;;5175313;23;20487;-94
2021/09/25 02:37:45;;;;;;;8.60;7.83;;;15.30;99.90;;;;;;4979651;28;20484;-94
2021/09/25 02:40:18;;;;;;;8.63;7.93;;;15.30;99.90;;;;;;4993824;28;20419;-95
2021/09/25 02:42:46;;;;;;;9.97;8.60;;;17.00;99.90;;;;;;4994955;28;20433;-94
2021/09/25 02:45:18;;;;;;;9.00;8.10;;;17.30;99.90;;;;;;5010372;28;20408;-95
2021/09/25 02:47:53;;;;;;;8.70;8.10;;;15.30;99.90;;;;;;5009790;28;20432;-95
2021/09/25 02:50:22;;;;;;;9.30;8.40;;;15.20;99.90;;;;;;4996625;28;20492;-93
2021/09/25 02:52:48;;;;;;;8.27;7.57;;;14.90;99.90;;;;;;4995826;28;20429;-91
2021/09/25 02:55:15;;;;;;;8.50;7.90;;;15.60;99.90;;;;;;4979377;28;20447;-93
2021/09/25 02:57:50;;;;;;;7.13;6.63;;;15.60;99.90;;;;;;5013029;28;20464;-94
2021/09/25 03:00:20;;;;;;;9.40;8.60;;;16.20;99.90;;;;;;5008891;28;20890;-94
2021/09/25 03:02:47;;;;;;;9.13;8.23;;;17.30;99.90;;;;;;4995103;28;20428;-95
2021/09/25 03:05:13;;;;;;;9.40;8.60;;;17.20;99.90;;;;;;4989785;28;20424;-94
2021/09/25 03:07:43;;;;;;;8.70;8.00;;;17.10;99.90;;;;;;4993881;28;20412;-94
2021/09/25 03:10:10;;;;;;;9.13;8.33;;;15.80;99.70;;;;;;4975833;28;20228;-94
2021/09/25 03:12:39;;;;;;;9.20;8.60;;;15.50;99.20;;;;;;4991239;28;20435;-95
2021/09/25 03:15:12;;;;;;;8.13;7.63;;;16.80;99.90;;;;;;4991624;28;20408;-95
2021/09/25 03:17:53;;;;;;;8.80;8.00;;;16.00;99.90;;;;;;4990391;28;20480;-95
2021/09/25 03:20:22;;;;;;;8.20;7.63;;;15.70;99.90;;;;;;4979360;28;20401;-91
2021/09/25 03:22:50;;;;;;;7.77;7.17;;;15.30;98.80;;;;;;5004219;28;20447;-93
2021/09/25 03:25:55;;;;;;;9.57;8.77;;;16.70;99.90;;;;;;4998103;28;20435;-95
2021/09/25 03:28:21;;;;;;;8.00;7.50;;;15.90;99.70;;;;;;4982621;28;20409;-94
2021/09/25 03:30:47;;;;;;;7.43;6.93;;;17.10;99.90;;;;;;4996600;28;20420;-95
2021/09/25 03:33:12;;;;;;;7.40;6.53;;;17.40;99.90;;;;;;4993687;28;20244;-96
2021/09/25 03:35:42;;;;;;;8.27;7.60;;;16.80;99.90;;;;;;4993372;28;20483;-93
2021/09/25 03:38:13;;;;;;;10.43;8.40;;;17.50;99.90;;;;;;4996648;28;20216;-95
2021/09/25 03:40:45;;;;;;;9.50;8.57;;;15.00;98.50;;;;;;4993805;28;20423;-94
2021/09/25 03:43:14;;;;;;;9.47;8.53;;;15.80;99.00;;;;;;4977895;28;20983;-95
2021/09/25 03:45:39;;;;;;;9.07;8.17;;;15.40;99.90;;;;;;4994116;28;20416;-96
2021/09/25 03:48:07;;;;;;;7.97;7.27;;;17.60;99.90;;;;;;4994649;28;20982;-96
2021/09/25 03:50:41;;;;;;;9.57;8.60;;;15.80;99.10;;;;;;4997074;28;20238;-96
2021/09/25 03:53:18;;;;;;;9.77;8.87;;;15.80;99.00;;;;;;5189358;22;20482;-94
2021/09/25 03:55:44;;;;;;;8.40;7.63;;;16.10;99.20;;;;;;4994557;28;20519;-95
2021/09/25 03:58:09;;;;;;;8.77;8.07;;;16.90;99.90;;;;;;4992861;28;20482;-96
2021/09/25 04:00:54;;;;;;;9.17;8.30;;;15.80;99.90;;;;;;4996010;28;20188;-96
2021/09/25 04:03:33;;;;;;;9.53;8.53;;;15.00;97.80;;;;;;4997004;28;20169;-94
2021/09/25 04:06:01;;;;;;;8.93;8.23;;;15.70;99.30;;;;;;5011111;28;20523;-96
2021/09/25 04:08:34;;;;;;;9.27;7.93;;;17.00;99.90;;;;;;5013941;28;20425;-95
2021/09/25 04:11:23;;;;;;;8.77;8.03;;;17.50;99.90;;;;;;4995282;28;20416;-96
2021/09/25 04:13:54;;;;;;;13.53;8.23;;;14.80;97.90;;;;;;4995168;28;20435;-96
2021/09/25 04:16:27;;;;;;;9.37;8.50;;;16.10;99.20;;;;;;4993639;28;20421;-94
2021/09/25 04:18:58;;;;;;;8.93;7.90;;;17.50;99.90;;;;;;5012648;28;20428;-94
2021/09/25 04:21:29;;;;;;;8.77;7.97;;;15.40;99.90;;;;;;4996200;28;20459;-95
2021/09/25 04:24:10;;;;;;;8.53;7.73;;;16.20;99.90;;;;;;4995307;28;20174;-96
2021/09/25 04:26:47;;;;;;;9.57;8.57;;;17.50;99.90;;;;;;4995801;28;20423;-96
2021/09/25 04:29:14;;;;;;;9.43;8.80;;;15.70;99.90;;;;;;4996795;28;20417;-95
2021/09/25 04:31:48;;;;;;;9.60;8.90;;;15.60;98.40;;;;;;4994298;28;20424;-95
2021/09/25 04:34:40;;;;;;;9.63;8.73;;;15.70;99.30;;;;;;4983004;28;20447;-95
2021/09/25 04:37:17;;;;;;;9.97;9.20;;;16.20;99.10;;;;;;4984727;28;20488;-96
2021/09/25 04:39:46;;;;;;;10.53;9.37;;;15.90;98.60;;;;;;4997540;28;20437;-95
2021/09/25 04:42:13;;;;;;;11.33;9.47;;;15.90;99.00;;;;;;4997375;28;20444;-96
2021/09/25 04:44:40;;;;;;;10.80;9.70;;;15.80;99.50;;;;;;4993523;28;20439;-95
2021/09/25 04:47:06;;;;;;;9.17;8.37;;;17.70;99.90;;;;;;4992709;28;20456;-92
2021/09/25 04:49:52;;;;;;;9.97;8.47;;;15.70;99.50;;;;;;4994167;28;20443;-94
2021/09/25 04:52:50;;;;;;;8.97;8.20;;;15.30;97.90;;;;;;4985500;28;20218;-94
2021/09/25 04:55:16;;;;;;;11.57;8.83;;;15.80;98.00;;;;;;4971007;28;20434;-93
2021/09/25 04:57:44;;;;;;;12.30;9.40;;;14.80;98.50;;;;;;4970189;28;20524;-95
2021/09/25 05:00:13;;;;;;;9.80;9.03;;;17.50;99.90;;;;;;4954033;29;20193;-95
2021/09/25 05:02:43;;;;;;;10.23;9.43;;;15.80;98.20;;;;;;4974501;28;20442;-95
2021/09/25 05:10:23;;;;;;;9.03;8.20;;;15.70;98.30;;;;;;5136776;23;20504;-94
2021/09/25 05:12:49;;;;;;;10.90;9.67;;;15.70;98.40;;;;;;5032209;28;20422;-93
2021/09/25 05:15:16;;;;;;;9.23;8.53;;;15.00;99.90;;;;;;5034321;28;20541;-93
2021/09/25 05:17:43;;;;;;;10.13;9.27;;;15.80;99.00;;;;;;5053165;28;20200;-95
2021/09/25 05:20:15;;;;;;;9.67;8.87;;;15.00;99.50;;;;;;5031831;28;20462;-90
2021/09/25 05:22:51;;;;;;;8.63;7.93;;;15.40;97.80;;;;;;5050773;28;20491;-95
2021/09/25 05:25:22;;;;;;;9.80;8.80;;;15.80;99.10;;;;;;5047905;28;20466;-96
2021/09/25 05:27:55;;;;;;;9.83;8.97;;;15.80;99.10;;;;;;5034926;28;20491;-93
2021/09/25 05:30:21;;;;;;;8.77;8.00;;;15.70;98.50;;;;;;5032047;28;20656;-93
2021/09/25 05:32:57;;;;;;;10.93;8.70;;;16.60;99.90;;;;;;5032448;28;20430;-93
2021/09/25 05:35:30;;;;;;;10.33;8.63;;;16.00;98.00;;;;;;5047936;28;20422;-96
2021/09/25 05:37:59;;;;;;;12.00;9.97;;;15.90;99.40;;;;;;5031248;28;20438;-95
2021/09/25 05:40:25;;;;;;;11.20;8.53;;;15.90;98.40;;;;;;5033244;28;20419;-95
2021/09/25 05:42:53;;;;;;;8.97;8.10;;;15.90;99.20;;;;;;5031084;28;20427;-95
2021/09/25 05:45:22;;;;;;;8.23;7.53;;;15.50;99.50;;;;;;5035167;28;20430;-95
2021/09/25 05:47:52;;;;;;;9.80;8.90;;;16.10;99.30;;;;;;5034388;28;20482;-96
2021/09/25 05:50:41;;;;;;;8.93;7.90;;;15.70;97.20;;;;;;5015072;28;20427;-95
2021/09/25 05:53:29;;;;;;;;;;;;;;;;;;;;;
2021/09/25 05:55:56;;;;;;;9.57;8.67;;;16.20;98.20;;;;;;5049811;28;20447;-95
2021/09/25 05:58:28;;;;;;;11.03;9.83;;;17.50;99.90;;;;;;5034180;28;20573;-93
2021/09/25 06:01:17;;;;;;;11.70;10.50;;;15.20;97.50;;;;;;5052119;28;20431;-94
2021/09/25 06:03:53;;;;;;;10.13;9.07;;;16.20;97.50;;;;;;5035652;28;20423;-93
2021/09/25 06:08:57;;;;;;;12.00;10.67;;;16.00;97.20;;;;;;5125463;22;20495;-93
2021/09/25 06:11:22;;;;;;;8.50;7.80;;;16.20;97.70;;;;;;4993265;28;20427;-94
2021/09/25 06:14:00;;;;;;;10.17;9.27;;;16.50;98.30;;;;;;5013753;28;20413;-93
2021/09/25 06:16:31;;;;;;;10.67;9.57;;;16.20;99.30;;;;;;4996986;28;20417;-92
2021/09/25 06:18:57;;;;;;;10.57;9.20;;;16.30;97.80;;;;;;5143734;23;21343;-93
2021/09/25 06:21:24;;;;;;;9.83;9.00;;;17.60;99.10;;;;;;4981185;28;20441;-93
2021/09/25 06:23:56;;;;;;;12.27;8.90;;;16.20;98.70;;;;;;5030756;23;20505;-92
2021/09/25 06:26:21;;;;;;;10.13;9.27;;;16.40;99.20;;;;;;5170474;23;20497;-92
2021/09/25 06:28:49;;;;;;;11.40;9.83;;;16.10;97.50;;;;;;4992698;28;20540;-94
2021/09/25 06:33:56;;;;;;;11.20;9.60;;;16.30;96.70;;;;;;3949971;23;20301;-94
2021/09/25 06:36:25;;;;;;;10.83;9.07;;;17.00;99.10;;;;;;4992317;28;20428;-94
2021/09/25 06:39:00;;;;;;;10.50;9.60;;;17.10;99.30;;;;;;4992669;28;20432;-95
2021/09/25 06:41:30;;;;;;;11.13;9.27;;;17.80;97.80;;;;;;4991523;28;20420;-94
2021/09/25 06:43:58;;;;;;;10.87;9.87;;;17.70;97.40;;;;;;4989507;28;20435;-92
2021/09/25 06:46:43;;;;;;;10.90;9.90;;;16.90;99.20;;;;;;4991528;28;20466;-94
2021/09/25 06:49:13;;;;;;;10.17;9.17;;;16.30;96.70;;;;;;4998736;28;20883;-94
2021/09/25 06:51:38;;;;;;;8.90;8.00;;;15.40;96.80;;;;;;4974510;28;20432;-92
2021/09/25 06:54:20;;;;;;;9.17;8.37;;;16.60;98.80;;;;;;4993570;28;20525;-95
2021/09/25 06:56:51;;;;;;;9.50;8.80;;;16.40;96.90;;;;;;4992799;28;20448;-94
2021/09/25 06:59:20;;;;;;;9.30;8.50;;;16.30;96.70;;;;;;4980267;28;20435;-94
2021/09/25 07:01:48;;;;;;;9.63;8.50;;;16.50;97.20;;;;;;4993989;28;20433;-94
2021/09/25 07:04:18;;;;;;;10.93;8.73;;;16.50;98.00;;;;;;4995059;28;20793;-93
2021/09/25 07:06:48;;;;;;;9.57;8.87;;;16.40;96.60;;;;;;5009665;28;20432;-94
2021/09/25 07:09:16;;;;;;;11.17;9.90;;;18.60;99.50;;;;;;4991522;28;20416;-95
2021/09/25 07:11:50;;;;;;;8.83;8.13;;;16.50;96.20;;;;;;4974357;28;20488;-93
2021/09/25 07:14:20;;;;;;;9.57;8.67;;;16.80;95.70;;;;;;4991093;28;20903;-91
2021/09/25 07:16:51;;;;;;;9.03;8.23;;;15.70;96.80;;;;;;4977777;28;20464;-95
2021/09/25 07:19:17;;;;;;;10.47;7.80;;;17.20;95.90;;;;;;4971339;28;20424;-93
2021/09/25 07:21:43;;;;;;;9.00;8.13;;;17.00;96.50;;;;;;4985740;28;20424;-95
2021/09/25 07:24:08;;;;;;;8.63;7.90;;;18.40;98.00;;;;;;4982445;28;20177;-95
2021/09/25 07:26:34;;;;;;;8.03;7.27;;;18.30;96.60;;;;;;4983474;28;20189;-95
2021/09/25 07:29:04;;;;;;;7.90;7.30;;;18.40;96.70;;;;;;4987406;28;20193;-95
2021/09/25 07:31:36;;;;;;;7.90;7.30;;;16.80;94.50;;;;;;4994977;28;20408;-94
2021/09/25 07:37:24;;;;;;;8.30;7.80;;;17.90;95.20;;;;;;4994057;28;20558;-95
2021/09/25 07:39:52;;;;;;;9.40;8.50;;;16.80;94.60;;;;;;4976679;28;20425;-92
2021/09/25 07:42:26;;;;;;;8.50;7.70;;;17.10;95.40;;;;;;4990921;28;20416;-94
2021/09/25 07:44:52;;;;;;;8.40;7.80;;;17.10;93.80;;;;;;4993499;28;20443;-93
2021/09/25 07:47:18;;;;;;;7.70;7.17;;;19.10;96.00;;;;;;4990257;28;20440;-93
2021/09/25 07:49:55;;;;;;;8.40;7.90;;;19.60;95.70;;;;;;4975426;28;20174;-95
2021/09/25 07:52:23;;;;;;;8.13;7.53;;;17.50;93.30;;;;;;4991950;28;20428;-95
2021/09/25 07:54:54;;;;;;;7.90;7.40;;;16.80;93.80;;;;;;4991692;28;20421;-96
2021/09/25 07:57:19;;;;;;;8.33;7.73;;;19.60;95.20;;;;;;4987654;28;21043;-93
2021/09/25 07:59:45;;;;;;;8.43;7.87;;;17.60;93.80;;;;;;4985798;28;20484;-95
2021/09/25 08:02:11;;;;;;;8.43;7.70;;;18.80;95.00;;;;;;4986878;28;20245;-93
2021/09/25 08:04:36;;;;;;;7.77;7.17;;;19.00;95.20;;;;;;4986220;28;20606;-93
2021/09/25 08:07:02;;;;;;;6.80;6.30;;;18.90;94.40;;;;;;4983759;28;20626;-94
2021/09/25 08:09:30;;;;;;;8.53;7.70;;;17.50;93.50;;;;;;4987188;28;20177;-91
2021/09/25 08:12:19;;;;;;;7.70;7.17;;;17.50;93.50;;;;;;4993394;28;20439;-93
2021/09/25 08:22:34;;;;;;;6.80;6.45;;;17.70;91.50;;;;;;1823056;23;10001844;-93
2021/09/25 08:25:00;;;;;;;7.73;7.23;;;17.10;91.80;;;;;;4981435;28;20676;-92
2021/09/25 08:27:42;;;;;;;6.63;5.90;;;18.90;92.60;;;;;;4985083;28;20427;-95
2021/09/25 08:30:15;;;;;;;7.77;7.23;;;18.00;90.80;;;;;;4987925;28;20926;-93
2021/09/25 08:32:43;;;;;;;7.50;7.00;;;18.00;91.10;;;;;;5002945;28;20471;-91
2021/09/25 08:35:24;;;;;;;;;;;;;;;;;;;;;
2021/09/25 08:38:15;;;;;;;7.10;6.67;;;18.80;91.50;;;;;;5001201;28;20956;-92
2021/09/25 08:40:44;;;;;;;8.03;7.43;;;18.20;92.80;;;;;;4985406;28;20415;-92
2021/09/25 08:43:26;;;;;;;6.07;5.70;;;19.00;91.70;;;;;;4984726;28;20435;-92
2021/09/25 08:46:03;;;;;;;7.17;6.67;;;18.30;90.50;;;;;;5002363;28;20497;-91
2021/09/25 08:48:40;;;;;;;7.13;6.63;;;18.40;89.50;;;;;;4985976;28;20499;-89
2021/09/25 08:51:11;;;;;;;5.97;5.57;;;20.20;91.20;;;;;;4986268;28;20818;-93
2021/09/25 08:53:38;;;;;;;5.80;5.50;;;18.90;88.60;;;;;;4991035;28;20413;-94
2021/09/25 08:56:04;;;;;;;6.40;6.00;;;18.60;91.20;;;;;;4990894;28;20451;-91
2021/09/25 09:01:54;;;;;;;6.47;5.90;;;18.80;86.50;;;;;;4933281;28;20475;-92
2021/09/25 09:04:52;;;;;;;5.63;5.20;;;18.90;90.00;;;;;;5014160;28;20431;-93
2021/09/25 09:07:57;;;;;;;7.63;6.47;;;19.30;86.60;;;;;;4994641;28;20452;-91
2021/09/25 09:11:40;;;;;;;;;;;;;;;;;;;;;
2021/09/25 09:18:15;;;;;;;6.27;5.97;;;21.00;86.10;;;;;;4781461;30;20483;-91
2021/09/25 09:21:13;;;;;;;6.50;6.10;;;19.60;82.80;;;;;;4884689;29;20420;-92
2021/09/25 09:23:53;;;;;;;8.20;7.47;;;19.70;82.90;;;;;;4962437;28;20556;-93
2021/09/25 09:26:31;;;;;;;7.37;6.90;;;20.50;85.80;;;;;;4986817;28;20420;-91
2021/09/25 09:29:00;;;;;;;6.93;6.63;;;19.70;83.70;;;;;;4986687;28;20764;-92
2021/09/25 09:31:30;;;;;;;7.57;7.07;;;19.80;83.00;;;;;;5005067;28;20421;-90
2021/09/25 09:33:58;;;;;;;7.77;7.27;;;20.10;81.00;;;;;;4985243;28;20771;-91
2021/09/25 09:36:47;;;;;;;6.20;5.60;;;20.30;80.10;;;;;;5002446;28;21019;-89
2021/09/25 09:39:18;;;;;;;7.00;6.50;;;20.30;79.20;;;;;;4986730;28;20443;-88
2021/09/25 09:41:58;;;;;;;6.37;5.97;;;18.40;76.30;;;;;;4985615;28;20440;-91
2021/09/25 09:44:34;;;;;;;7.53;7.00;;;20.30;79.80;;;;;;4985821;28;20838;-91
2021/09/25 09:47:08;;;;;;;7.20;6.70;;;20.40;79.10;;;;;;4985057;28;20434;-91
2021/09/25 09:49:37;;;;;;;6.57;6.27;;;20.50;78.70;;;;;;5004353;28;20447;-93
2021/09/25 09:52:09;;;;;;;7.33;6.83;;;22.60;80.40;;;;;;4968441;28;20486;-92
2021/09/25 09:54:43;;;;;;;7.47;6.77;;;21.10;76.70;;;;;;4991488;28;20420;-93
2021/09/25 09:57:20;;;;;;;6.43;5.97;;;22.00;79.90;;;;;;4972080;28;20551;-91
2021/09/25 09:59:48;;;;;;;7.03;6.63;;;21.10;79.10;;;;;;4970361;28;20460;-91
2021/09/25 10:02:21;;;;;;;7.30;6.90;;;20.60;74.70;;;;;;4967128;28;20409;-92
2021/09/25 10:05:28;;;;;;;8.17;7.27;;;21.30;75.40;;;;;;4969701;28;20405;-92
2021/09/25 10:07:57;;;;;;;6.23;6.03;;;21.80;75.50;;;;;;4982307;28;20444;-93
2021/09/25 10:10:26;;;;;;;7.90;7.30;;;20.30;73.80;;;;;;4983220;28;20409;-89
2021/09/25 10:12:56;;;;;;;7.57;7.07;;;21.80;75.00;;;;;;4971120;28;20421;-91
2021/09/25 10:15:24;;;;;;;7.00;6.40;;;23.00;76.70;;;;;;4288412;28;10000698;-90
2021/09/25 10:17:50;;;;;;;7.03;6.53;;;21.20;74.30;;;;;;4990004;28;20216;-87
2021/09/25 10:20:15;;;;;;;8.10;7.50;;;21.00;73.10;;;;;;4980792;28;20505;-86
2021/09/25 10:22:48;;;;;;;7.53;6.97;;;20.60;74.30;;;;;;4978915;28;20786;-87
2021/09/25 10:25:18;;;;;;;21.10;19.23;;;20.90;75.60;;;;;;4961502;28;20185;-90
2021/09/25 10:27:45;;;;;;;8.50;7.83;;;20.90;73.50;;;;;;4961044;28;20491;-91
2021/09/25 10:30:14;;;;;;;7.67;7.10;;;21.10;73.00;;;;;;4962293;28;20485;-90
2021/09/25 10:32:53;;;;;;;7.30;6.80;;;21.10;73.50;;;;;;4960624;28;20954;-84
2021/09/25 10:35:27;;;;;;;6.80;6.50;;;22.70;74.80;;;;;;4962876;28;20424;-90
2021/09/25 10:38:01;;;;;;;7.83;6.67;;;21.10;72.30;;;;;;4961854;28;20472;-90
2021/09/25 10:40:31;;;;;;;7.07;6.67;;;21.90;74.10;;;;;;4979127;28;20413;-90
2021/09/25 10:43:18;;;;;;;7.93;7.33;;;22.50;73.40;;;;;;4964691;28;20402;-88
2021/09/25 10:46:12;;;;;;;8.03;7.57;;;23.40;73.40;;;;;;4980804;28;20423;-90
2021/09/25 10:48:55;;;;;;;8.63;7.83;;;22.30;70.60;;;;;;4961623;28;20416;-89
2021/09/25 10:51:21;;;;;;;7.37;6.87;;;22.20;67.20;;;;;;4961848;28;20489;-90
2021/09/25 10:53:50;;;;;;;6.60;6.30;;;22.60;71.80;;;;;;4963022;28;20488;-89
2021/09/25 10:56:26;;;;;;;14.50;13.33;;;23.90;69.40;;;;;;4982115;28;20233;-91
2021/09/25 10:59:06;;;;;;;12.60;11.63;;;22.80;66.80;;;;;;4981212;28;20429;-89
2021/09/25 11:01:38;;;;;;;9.60;8.90;;;22.60;68.80;;;;;;4964951;28;20417;-91
2021/09/25 11:04:12;;;;;;;9.67;9.07;;;22.60;66.90;;;;;;4965177;28;20429;-89
2021/09/25 11:06:44;;;;;;;10.70;9.83;;;24.70;68.10;;;;;;4981288;28;20409;-90
2021/09/25 11:09:26;;;;;;;10.10;9.30;;;23.80;67.40;;;;;;4984110;28;20418;-91
2021/09/25 11:11:56;;;;;;;9.60;8.93;;;23.00;68.70;;;;;;4980949;28;20424;-90
2021/09/25 11:14:56;;;;;;;9.70;9.00;;;23.20;64.30;;;;;;4967892;28;20428;-91
2021/09/25 11:17:37;;;;;;;;;;;;;;;;;;;;;
2021/09/25 11:20:07;;;;;;;9.50;8.87;;;25.30;66.30;;;;;;4983293;28;20496;-90
2021/09/25 11:22:59;;;;;;;9.50;8.70;;;23.50;64.40;;;;;;4960549;28;20957;-89
2021/09/25 11:25:29;;;;;;;9.87;9.27;;;23.50;64.20;;;;;;4960559;28;20410;-92
2021/09/25 11:28:01;;;;;;;10.03;9.13;;;25.40;68.40;;;;;;4959720;28;20410;-88
2021/09/25 11:30:30;;;;;;;8.40;7.80;;;23.40;64.00;;;;;;4959787;28;20426;-89
2021/09/25 11:32:57;;;;;;;8.93;8.23;;;25.40;63.50;;;;;;4959511;28;20441;-89
2021/09/25 11:35:27;;;;;;;8.70;8.10;;;24.10;61.30;;;;;;4958075;28;20442;-87
2021/09/25 11:38:03;;;;;;;8.90;8.30;;;23.90;60.30;;;;;;4958565;28;20466;-90
2021/09/25 11:40:39;;;;;;;8.13;7.63;;;23.80;60.10;;;;;;4960788;28;20413;-88
2021/09/25 11:43:14;;;;;;;9.53;8.70;;;23.90;61.40;;;;;;4961384;28;20493;-91
2021/09/25 11:45:45;;;;;;;10.93;10.07;;;24.00;59.90;;;;;;4960392;28;20417;-89
2021/09/25 11:48:15;;;;;;;8.70;7.70;;;25.10;61.10;;;;;;4962556;28;20418;-87
2021/09/25 11:51:02;;;;;;;10.30;8.53;;;24.20;60.00;;;;;;4965833;28;20414;-88
2021/09/25 11:53:30;;;;;;;9.77;8.80;;;24.50;60.90;;;;;;4963060;28;20543;-91
2021/09/25 11:55:59;;;;;;;9.23;8.43;;;24.40;59.80;;;;;;4961652;28;20520;-86
2021/09/25 11:58:25;;;;;;;22.67;9.70;;;25.70;61.20;;;;;;4963336;28;20489;-86
2021/09/25 12:00:58;;;;;;;9.57;8.97;;;24.30;60.40;;;;;;4962505;28;20417;-90
2021/09/25 12:03:25;;;;;;;8.87;8.07;;;;;;;;;;4962872;28;20425;-91
2021/09/25 12:05:53;;;;;;;9.03;8.27;;;;;;;;;;4632635;28;10000068;-90
2021/09/25 12:08:22;;;;;;;7.73;7.13;;;;;;;;;;4985363;28;20414;-92
2021/09/25 12:10:50;;;;;;;8.50;8.07;;;;;;;;;;4985588;28;20425;-88
2021/09/25 12:13:21;;;;;;;9.10;8.40;;;;;;;;;;4985146;28;20521;-87
2021/09/25 12:16:02;;;;;;;8.20;7.70;;;;;;;;;;4985207;28;21006;-90
2021/09/25 12:18:32;;;;;;;8.33;7.70;;;;;;;;;;4962480;28;20472;-89
2021/09/25 12:21:06;;;;;;;11.43;8.97;;;;;;;;;;4975256;28;20408;-88
2021/09/25 12:23:40;;;;;;;8.03;7.63;;;;;;;;;;4959276;28;20536;-87
2021/09/25 12:26:11;;;;;;;9.10;8.20;;;;;;;;;;4976846;28;20413;-90
2021/09/25 12:28:47;;;;;;;8.90;8.30;;;;;;;;;;4975470;28;20448;-85
2021/09/25 12:31:17;;;;;;;9.07;8.47;;;;;;;;;;4959651;28;20515;-88
2021/09/25 12:33:54;;;;;;;8.83;8.17;;;;;;;;;;4977468;28;20402;-88
2021/09/25 12:36:20;;;;;;;10.43;9.63;;;;;;;;;;4961529;28;20429;-89
2021/09/25 12:38:47;;;;;;;9.90;8.40;;;;;;;;;;4976908;28;20417;-90
2021/09/25 12:41:22;;;;;;;8.80;8.20;;;;;;;;;;4976401;28;20919;-88
2021/09/25 12:43:53;;;;;;;7.60;7.00;;;;;;;;;;4959640;28;20504;-91
2021/09/25 12:46:30;;;;;;;7.90;7.30;;;;;;;;;;4976362;28;20417;-88
2021/09/25 12:49:08;;;;;;;8.37;7.67;;;;;;;;;;4976529;28;20420;-87
2021/09/25 12:51:35;;;;;;;7.43;6.80;;;;;;;;;;4978047;28;20405;-88
2021/09/25 12:54:03;;;;;;;6.43;6.13;;;;;;;;;;4977174;28;20431;-86
2021/09/25 12:56:33;;;;;;;7.67;6.97;;;;;;;;;;4959433;28;20504;-87
2021/09/25 12:59:00;;;;;;;7.60;7.10;;;;;;;;;;4961826;28;20421;-88
2021/09/25 13:01:30;;;;;;;8.17;7.23;;;;;;;;;;4959465;28;20421;-89
2021/09/25 13:03:56;;;;;;;7.53;7.23;;;;;;;;;;4961261;28;20421;-89
2021/09/25 13:06:25;;;;;;;7.10;6.80;;;;;;;;;;4962179;28;20764;-89
2021/09/25 13:08:57;;;;;;;7.23;6.83;;;;;;;;;;4977332;28;20471;-90
2021/09/25 13:11:23;;;;;;;8.60;7.87;;;;;;;;;;4958882;28;20422;-88
2021/09/25 13:14:09;;;;;;;7.90;7.47;;;;;;;;;;4959654;28;20776;-90
2021/09/25 13:16:38;;;;;;;8.00;7.50;;;;;;;;;;4960681;28;20429;-90
2021/09/25 13:19:04;;;;;;;6.80;6.27;;;;;;;;;;4976471;28;20419;-90
2021/09/25 13:21:31;;;;;;;7.33;6.67;;;;;;;;;;4962245;28;20422;-90
2021/09/25 13:24:06;;;;;;;7.53;6.63;;;;;;;;;;4983826;28;20473;-92
2021/09/25 13:26:47;;;;;;;7.27;6.70;;;;;;;;;;4967220;28;20429;-93
2021/09/25 13:29:26;;;;;;;6.13;5.83;;;;;;;;;;4946808;29;20441;-93
2021/09/25 13:32:08;;;;;;;7.27;6.80;;;;;;;;;;4947806;29;20418;-91
2021/09/25 13:34:37;;;;;;;6.90;6.50;;;;;;;;;;4941847;29;20410;-93
2021/09/25 13:37:03;;;;;;;7.20;6.83;;;;;;;;;;4942643;28;20970;-92
2021/09/25 13:39:32;;;;;;;7.10;6.80;;;;;;;;;;4943988;28;20485;-92
2021/09/25 13:41:58;;;;;;;6.90;6.40;;;;;;;;;;4947325;29;20414;-94
2021/09/25 13:44:24;;;;;;;8.47;7.73;;;;;;;;;;4946514;29;20501;-91
2021/09/25 13:46:50;;;;;;;7.03;6.63;;;;;;;;;;4943583;29;20512;-92
2021/09/25 13:49:17;;;;;;;7.63;6.93;;;;;;;;;;4959163;28;20415;-91
2021/09/25 13:51:43;;;;;;;7.87;7.40;;;;;;;;;;4940854;28;20423;-92
2021/09/25 13:54:09;;;;;;;7.13;6.63;;;;;;;;;;4943982;29;20529;-93
2021/09/25 13:56:35;;;;;;;7.70;7.20;;;;;;;;;;4943038;29;20501;-92
2021/09/25 13:59:10;;;;;;;6.70;6.30;;;;;;;;;;4942661;29;21009;-93
2021/09/25 14:01:40;;;;;;;8.17;7.33;;;;;;;;;;4960192;28;20436;-94
2021/09/25 14:04:06;;;;;;;7.63;7.03;;;;;;;;;;4940831;28;20502;-91
2021/09/25 14:06:32;;;;;;;7.40;6.97;;;;;;;;;;4942413;29;20462;-92
2021/09/25 14:09:02;;;;;;;11.38;8.00;;;;;;;;;;4630176;28;10000997;-94
2021/09/25 14:11:28;;;;;;;8.13;7.73;;;;;;;;;;4943240;29;20367;-85
2021/09/25 14:13:54;;;;;;;6.47;6.07;;;;;;;;;;4959986;28;20476;-93
2021/09/25 14:16:20;;;;;;;6.60;6.30;;;;;;;;;;4942405;29;20418;-93
2021/09/25 14:18:48;;;;;;;6.40;6.10;;;;;;;;;;4959980;28;20481;-93
2021/09/25 14:21:15;;;;;;;7.13;6.73;;;;;;;;;;4958006;28;20434;-92
2021/09/25 14:23:41;;;;;;;7.27;6.87;;;;;;;;;;4942024;29;20466;-91
2021/09/25 14:26:08;;;;;;;6.97;6.37;;;;;;;;;;4940293;29;20497;-90
2021/09/25 14:28:35;;;;;;;6.20;5.73;;;;;;;;;;4960594;28;20517;-92
2021/09/25 14:31:01;;;;;;;7.53;6.70;;;;;;;;;;4943810;29;20414;-94
2021/09/25 14:33:27;;;;;;;7.70;7.23;;;;;;;;;;4945421;28;20426;-92
2021/09/25 14:35:54;;;;;;;7.00;6.50;;;;;;;;;;4947803;29;20414;-93
2021/09/25 14:38:23;;;;;;;6.80;6.30;;;;;;;;;;4945399;29;20576;-92
2021/09/25 14:40:50;;;;;;;6.40;6.00;;;;;;;;;;4959796;28;20502;-90
2021/09/25 14:43:16;;;;;;;6.20;5.90;;;;;;;;;;4959340;28;20933;-91
2021/09/25 14:45:42;;;;;;;5.67;5.37;;;;;;;;;;4943472;28;20418;-89
2021/09/25 14:48:08;;;;;;;6.27;5.77;;;;;;;;;;4961150;28;20441;-92
2021/09/25 14:50:34;;;;;;;9.07;6.60;;;;;;;;;;4946706;29;20502;-92
2021/09/25 14:53:02;;;;;;;8.47;7.67;;;;;;;;;;4948991;29;20418;-91
2021/09/25 14:55:33;;;;;;;7.13;6.67;;;;;;;;;;4947556;29;20425;-93
2021/09/25 14:58:00;;;;;;;6.90;6.40;;;;;;;;;;4966068;28;20473;-91
2021/09/25 15:00:30;;;;;;;6.33;6.03;;;;;;;;;;4948499;28;20422;-92
2021/09/25 15:02:57;;;;;;;7.73;6.93;;;;;;;;;;4963443;28;20959;-92
2021/09/25 15:05:24;;;;;;;7.80;7.20;;;;;;;;;;4981090;28;20456;-92
2021/09/25 15:08:10;;;;;;;8.30;7.70;;;;;;;;;;4965972;28;20413;-94
2021/09/25 15:10:37;;;;;;;6.03;5.73;;;;;;;;;;4985196;28;20409;-92
2021/09/25 15:13:08;;;;;;;7.83;6.43;;;;;;;;;;4965428;28;20525;-89
2021/09/25 15:15:34;;;;;;;7.47;6.77;;;;;;;;;;4964033;28;20432;-91
2021/09/25 15:18:00;;;;;;;6.37;6.07;;;;;;;;;;4970635;28;20484;-92
2021/09/25 15:20:26;;;;;;;9.60;6.17;;;;;;;;;;4971329;28;20417;-89
2021/09/25 15:22:57;;;;;;;6.50;6.10;;;;;;;;;;4971543;28;20469;-93
2021/09/25 15:25:23;;;;;;;6.97;6.50;;;;;;;;;;4965351;28;20551;-90
2021/09/25 15:27:49;;;;;;;7.50;6.87;;;;;;;;;;4979918;28;20424;-88
2021/09/25 15:30:15;;;;;;;8.30;7.53;;;;;;;;;;4981171;28;20433;-90
2021/09/25 15:32:42;;;;;;;7.13;6.73;;;;;;;;;;4965537;28;20513;-89